createdAt,value
2023-04-22T00:00:56.527Z,14.09
2023-04-22T00:03:27.906Z,14.08
2023-04-22T00:05:56.237Z,14.03
2023-04-22T00:08:25.610Z,14.00
2023-04-22T00:10:53.860Z,13.96
2023-04-22T00:13:22.069Z,13.93
2023-04-22T00:15:51.273Z,13.92
2023-04-22T00:18:19.730Z,13.91
2023-04-22T00:20:49.157Z,13.88
2023-04-22T00:23:17.531Z,13.84
2023-04-22T00:25:45.636Z,13.81
2023-04-22T00:28:13.693Z,13.77
2023-04-22T00:30:42.040Z,13.73
2023-04-22T00:33:10.475Z,13.73
2023-04-22T00:35:38.602Z,13.71
2023-04-22T00:38:08.412Z,13.68
2023-04-22T00:40:36.505Z,13.64
2023-04-22T00:43:04.771Z,13.60
2023-04-22T00:45:33.163Z,13.54
2023-04-22T00:48:01.930Z,13.53
2023-04-22T00:50:30.671Z,13.50
2023-04-22T00:52:59.043Z,13.46
2023-04-22T00:55:29.166Z,13.45
2023-04-22T00:57:59.610Z,13.42
2023-04-22T01:00:29.678Z,13.42
2023-04-22T01:02:58.722Z,13.40
2023-04-22T01:05:28.577Z,13.42
2023-04-22T01:07:57.265Z,13.40
2023-04-22T01:10:25.804Z,13.41
2023-04-22T01:12:55.186Z,13.37
2023-04-22T01:15:23.490Z,13.32
2023-04-22T01:17:53.254Z,13.31
2023-04-22T01:20:22.323Z,13.29
2023-04-22T01:22:54.811Z,13.29
2023-04-22T01:25:25.953Z,13.30
2023-04-22T01:27:54.835Z,13.27
2023-04-22T01:30:23.229Z,13.28
2023-04-22T01:32:51.554Z,13.27
2023-04-22T01:35:22.041Z,13.28
2023-04-22T01:37:50.134Z,13.25
2023-04-22T01:40:22.638Z,13.23
2023-04-22T01:42:52.542Z,13.20
2023-04-22T01:45:20.847Z,13.19
2023-04-22T01:47:48.873Z,13.17
2023-04-22T01:50:17.399Z,13.16
2023-04-22T01:52:46.862Z,13.16
2023-04-22T01:55:15.570Z,13.16
2023-04-22T01:57:44.665Z,13.15
2023-04-22T02:00:15.185Z,13.15
2023-04-22T02:02:44.651Z,13.11
2023-04-22T02:05:13.375Z,13.13
2023-04-22T02:07:41.726Z,13.13
2023-04-22T02:10:11.599Z,13.14
2023-04-22T02:12:39.760Z,13.13
2023-04-22T02:15:08.791Z,13.13
2023-04-22T02:17:38.545Z,13.13
2023-04-22T02:20:07.768Z,13.12
2023-04-22T02:22:36.030Z,13.12
2023-04-22T02:25:04.953Z,13.13
2023-04-22T02:27:33.094Z,13.13
2023-04-22T02:30:01.265Z,13.12
2023-04-22T02:32:30.077Z,13.10
2023-04-22T02:34:59.613Z,13.07
2023-04-22T02:37:27.907Z,13.06
2023-04-22T02:39:56.304Z,13.09
2023-04-22T02:42:24.599Z,13.08
2023-04-22T02:44:52.868Z,13.10
2023-04-22T02:47:21.527Z,13.08
2023-04-22T02:49:49.755Z,13.09
2023-04-22T02:52:19.149Z,13.12
2023-04-22T02:54:47.515Z,13.12
2023-04-22T02:57:15.639Z,13.12
2023-04-22T02:59:43.708Z,13.11
2023-04-22T03:02:14.144Z,13.11
2023-04-22T03:04:42.478Z,13.10
2023-04-22T03:07:10.942Z,13.09
2023-04-22T03:09:41.330Z,13.10
2023-04-22T03:12:09.987Z,13.05
2023-04-22T03:14:38.543Z,13.04
2023-04-22T03:17:07.128Z,13.02
2023-04-22T03:19:35.406Z,13.02
2023-04-22T03:22:03.552Z,13.00
2023-04-22T03:24:32.339Z,12.98
2023-04-22T03:27:05.487Z,12.95
2023-04-22T03:29:33.835Z,12.86
2023-04-22T03:32:02.066Z,12.78
2023-04-22T03:34:30.501Z,12.66
2023-04-22T03:36:58.849Z,12.61
2023-04-22T03:39:27.064Z,12.50
2023-04-22T03:41:55.509Z,12.49
2023-04-22T03:44:25.425Z,12.39
2023-04-22T03:46:53.828Z,12.36
2023-04-22T03:49:22.918Z,12.32
2023-04-22T03:51:51.412Z,12.33
2023-04-22T03:54:21.328Z,12.30
2023-04-22T03:56:49.614Z,12.29
2023-04-22T03:59:19.444Z,12.29
2023-04-22T04:01:49.093Z,12.28
2023-04-22T04:04:19.343Z,12.22
2023-04-22T04:06:47.979Z,12.25
2023-04-22T04:09:16.189Z,12.25
2023-04-22T04:11:44.586Z,12.23
2023-04-22T04:14:13.316Z,12.22
2023-04-22T04:16:41.751Z,12.20
2023-04-22T04:19:12.121Z,12.22
2023-04-22T04:21:40.190Z,12.30
2023-04-22T04:24:08.485Z,12.35
2023-04-22T04:26:37.815Z,12.40
2023-04-22T04:29:08.417Z,12.46
2023-04-22T04:31:37.988Z,12.51
2023-04-22T04:34:07.370Z,12.49
2023-04-22T04:36:39.937Z,12.53
2023-04-22T04:39:09.663Z,12.55
2023-04-22T04:41:38.704Z,12.66
2023-04-22T04:44:07.194Z,12.76
2023-04-22T04:46:37.692Z,12.83
2023-04-22T04:49:06.216Z,12.91
2023-04-22T04:51:41.940Z,12.98
2023-04-22T04:54:10.323Z,13.04
2023-04-22T04:56:39.054Z,13.10
2023-04-22T04:59:08.664Z,13.13
2023-04-22T05:01:38.123Z,13.17
2023-04-22T05:04:07.417Z,13.21
2023-04-22T05:06:36.080Z,13.32
2023-04-22T05:09:07.927Z,13.44
2023-04-22T05:11:36.446Z,13.53
2023-04-22T05:14:06.411Z,13.63
2023-04-22T05:16:34.839Z,13.72
2023-04-22T05:19:03.159Z,13.82
2023-04-22T05:21:31.411Z,13.94
2023-04-22T05:23:59.681Z,14.02
2023-04-22T05:26:29.095Z,14.13
2023-04-22T05:28:57.615Z,14.23
2023-04-22T05:31:25.782Z,14.33
2023-04-22T05:33:53.826Z,14.41
2023-04-22T05:36:22.658Z,14.48
2023-04-22T05:38:50.847Z,14.56
2023-04-22T05:41:18.903Z,14.65
2023-04-22T05:43:48.615Z,14.67
2023-04-22T05:46:17.132Z,14.79
2023-04-22T05:48:45.547Z,14.89
2023-04-22T05:51:16.750Z,15.02
2023-04-22T05:53:44.805Z,15.13
2023-04-22T05:56:12.839Z,15.20
2023-04-22T05:58:41.158Z,15.35
2023-04-22T06:01:11.261Z,15.47
2023-04-22T06:03:40.680Z,15.59
2023-04-22T06:06:09.665Z,15.73
2023-04-22T06:08:37.673Z,15.86
2023-04-22T06:11:06.541Z,16.01
2023-04-22T06:13:34.939Z,16.13
2023-04-22T06:16:05.056Z,16.25
2023-04-22T06:18:37.920Z,16.36
2023-04-22T06:21:06.870Z,16.47
2023-04-22T06:23:38.144Z,16.59
2023-04-22T06:26:06.217Z,16.73
2023-04-22T06:28:34.646Z,16.90
2023-04-22T06:31:03.546Z,17.04
2023-04-22T06:33:31.616Z,17.21
2023-04-22T06:36:01.515Z,17.41
2023-04-22T06:38:30.318Z,17.56
2023-04-22T06:41:01.281Z,17.80
2023-04-22T06:43:29.652Z,18.04
2023-04-22T06:45:58.650Z,18.18
2023-04-22T06:48:28.379Z,18.34
2023-04-22T06:51:02.057Z,18.56
2023-04-22T06:53:30.416Z,18.73
2023-04-22T06:55:58.643Z,18.97
2023-04-22T06:58:26.674Z,19.23
2023-04-22T07:00:54.696Z,19.43
2023-04-22T07:03:23.306Z,19.65
2023-04-22T07:05:55.731Z,19.87
2023-04-22T07:08:26.798Z,20.07
2023-04-22T07:10:54.999Z,20.30
2023-04-22T07:13:24.479Z,20.50
2023-04-22T07:15:52.755Z,20.73
2023-04-22T07:18:20.736Z,20.89
2023-04-22T07:20:49.231Z,21.08
2023-04-22T07:23:17.410Z,21.27
2023-04-22T07:25:47.231Z,21.55
2023-04-22T07:28:15.501Z,21.74
2023-04-22T07:30:43.467Z,21.98
2023-04-22T07:33:11.434Z,22.21
2023-04-22T07:35:39.691Z,22.40
2023-04-22T07:38:08.833Z,22.59
2023-04-22T07:40:37.693Z,22.81
2023-04-22T07:43:07.301Z,23.00
2023-04-22T07:45:35.549Z,23.18
2023-04-22T07:48:03.969Z,23.31
2023-04-22T07:50:32.403Z,23.51
2023-04-22T07:53:00.797Z,23.63
2023-04-22T07:55:28.958Z,23.80
2023-04-22T07:57:57.232Z,23.94
2023-04-22T08:00:26.554Z,24.00
2023-04-22T08:02:54.852Z,24.10
2023-04-22T08:05:23.034Z,24.21
2023-04-22T08:07:51.061Z,24.32
2023-04-22T08:10:19.314Z,24.45
2023-04-22T08:12:47.402Z,24.51
2023-04-22T08:15:15.444Z,24.62
2023-04-22T08:17:45.176Z,24.67
2023-04-22T08:20:15.411Z,24.88
2023-04-22T08:22:44.446Z,25.09
2023-04-22T08:25:12.633Z,25.23
2023-04-22T08:27:40.929Z,25.44
2023-04-22T08:30:10.358Z,25.45
2023-04-22T08:32:38.446Z,25.54
2023-04-22T08:35:08.637Z,25.56
2023-04-22T08:37:36.921Z,25.62
2023-04-22T08:40:06.043Z,25.76
2023-04-22T08:42:34.398Z,25.72
2023-04-22T08:45:03.939Z,25.84
2023-04-22T08:47:32.830Z,25.97
2023-04-22T08:50:04.246Z,26.09
2023-04-22T08:52:34.073Z,26.01
2023-04-22T08:55:02.417Z,26.23
2023-04-22T08:57:33.074Z,26.39
2023-04-22T09:00:01.685Z,26.48
2023-04-22T09:02:32.931Z,26.63
2023-04-22T09:05:03.269Z,26.57
2023-04-22T09:07:36.353Z,26.67
2023-04-22T09:10:05.570Z,26.87
2023-04-22T09:12:33.534Z,26.99
2023-04-22T09:15:01.572Z,27.19
2023-04-22T09:17:34.134Z,27.36
2023-04-22T09:20:03.325Z,27.40
2023-04-22T09:22:41.139Z,27.59
2023-04-22T09:25:17.248Z,27.64
2023-04-22T09:27:50.335Z,27.67
2023-04-22T09:30:20.129Z,27.83
2023-04-22T09:32:55.635Z,28.02
2023-04-22T09:35:34.423Z,28.06
2023-04-22T09:38:06.285Z,28.23
2023-04-22T09:40:34.853Z,28.32
2023-04-22T09:43:06.120Z,28.48
2023-04-22T09:45:36.223Z,28.58
2023-04-22T09:48:08.474Z,28.76
2023-04-22T09:50:37.534Z,28.85
2023-04-22T09:53:08.975Z,28.92
2023-04-22T09:55:39.406Z,28.97
2023-04-22T09:58:10.097Z,29.09
2023-04-22T10:00:42.449Z,29.10
2023-04-22T10:03:11.172Z,29.18
2023-04-22T10:05:41.230Z,29.25
2023-04-22T10:08:11.937Z,29.33
2023-04-22T10:10:40.957Z,29.27
2023-04-22T10:13:09.639Z,29.33
2023-04-22T10:15:40.690Z,29.27
2023-04-22T10:18:13.016Z,29.44
2023-04-22T10:20:43.241Z,29.56
2023-04-22T10:23:24.578Z,29.69
2023-04-22T10:25:55.460Z,29.66
2023-04-22T10:28:25.250Z,29.71
2023-04-22T10:30:53.259Z,29.70
2023-04-22T10:33:40.143Z,29.76
2023-04-22T10:36:10.950Z,29.81
2023-04-22T10:38:41.877Z,30.02
2023-04-22T10:41:15.362Z,30.31
2023-04-22T10:43:45.279Z,30.48
2023-04-22T10:46:52.270Z,30.34
2023-04-22T10:49:21.559Z,30.23
2023-04-22T10:51:51.466Z,30.20
2023-04-22T10:55:00.032Z,30.38
2023-04-22T10:57:40.387Z,30.58
2023-04-22T11:00:45.770Z,30.36
2023-04-22T11:03:26.918Z,30.75
2023-04-22T11:06:16.967Z,30.81
2023-04-22T11:08:46.576Z,30.77
2023-04-22T11:11:18.602Z,30.62
2023-04-22T11:13:50.425Z,30.36
2023-04-22T11:16:22.587Z,30.32
2023-04-22T11:18:51.459Z,30.33
2023-04-22T11:21:21.579Z,30.58
2023-04-22T11:23:52.722Z,30.54
2023-04-22T11:26:34.747Z,30.52
2023-04-22T11:29:02.823Z,30.43
2023-04-22T11:31:31.240Z,30.34
2023-04-22T11:34:00.331Z,30.14
2023-04-22T11:36:28.840Z,30.11
2023-04-22T11:38:57.336Z,30.14
2023-04-22T11:41:30.035Z,30.41
2023-04-22T11:43:58.397Z,30.64
2023-04-22T11:46:31.496Z,30.45
2023-04-22T11:49:13.475Z,30.42
2023-04-22T11:51:53.766Z,30.52
2023-04-22T11:54:32.049Z,30.79
2023-04-22T11:57:03.751Z,30.71
2023-04-22T11:59:32.182Z,30.82
2023-04-22T12:02:00.342Z,31.01
2023-04-22T12:04:28.758Z,30.85
2023-04-22T12:06:56.967Z,30.97
2023-04-22T12:09:26.538Z,31.09
2023-04-22T12:11:54.822Z,31.13
2023-04-22T12:14:30.865Z,31.16
2023-04-22T12:16:59.146Z,30.93
2023-04-22T12:19:27.621Z,30.91
2023-04-22T12:21:57.000Z,31.04
2023-04-22T12:24:29.422Z,31.04
2023-04-22T12:26:58.661Z,31.06
2023-04-22T12:29:33.684Z,30.99
2023-04-22T12:32:02.570Z,31.02
2023-04-22T12:34:31.280Z,30.87
2023-04-22T12:37:00.074Z,30.97
2023-04-22T12:39:28.179Z,31.06
2023-04-22T12:41:57.788Z,31.09
2023-04-22T12:44:25.815Z,30.96
2023-04-22T12:46:55.361Z,30.87
2023-04-22T12:49:23.653Z,30.89
2023-04-22T12:51:52.301Z,31.14
2023-04-22T12:54:21.012Z,31.24
2023-04-22T12:56:49.472Z,31.15
2023-04-22T12:59:17.535Z,31.15
2023-04-22T13:01:45.680Z,31.33
2023-04-22T13:04:15.473Z,31.41
2023-04-22T13:06:44.383Z,31.40
2023-04-22T13:09:12.914Z,31.55
2023-04-22T13:11:41.353Z,31.48
2023-04-22T13:14:09.405Z,31.37
2023-04-22T13:16:37.904Z,31.56
2023-04-22T13:19:06.237Z,31.73
2023-04-22T13:21:35.926Z,31.87
2023-04-22T13:24:04.229Z,32.07
2023-04-22T13:26:32.537Z,32.19
2023-04-22T13:29:02.600Z,32.18
2023-04-22T13:31:30.849Z,32.28
2023-04-22T13:33:59.136Z,32.38
2023-04-22T13:36:27.846Z,32.46
2023-04-22T13:38:58.394Z,32.58
2023-04-22T13:41:26.748Z,32.66
2023-04-22T13:43:56.053Z,32.82
2023-04-22T13:46:25.043Z,32.73
2023-04-22T13:48:54.069Z,32.74
2023-04-22T13:51:22.509Z,32.87
2023-04-22T13:53:50.564Z,33.05
2023-04-22T13:56:20.409Z,33.05
2023-04-22T13:58:48.910Z,32.96
2023-04-22T14:01:16.934Z,33.06
2023-04-22T14:03:46.188Z,33.24
2023-04-22T14:06:14.259Z,33.34
2023-04-22T14:08:42.442Z,33.53
2023-04-22T14:11:10.964Z,33.56
2023-04-22T14:13:40.670Z,33.56
2023-04-22T14:16:10.016Z,33.45
2023-04-22T14:18:39.462Z,33.28
2023-04-22T14:21:09.399Z,33.12
2023-04-22T14:23:37.575Z,33.04
2023-04-22T14:26:06.653Z,32.93
2023-04-22T14:28:35.584Z,32.66
2023-04-22T14:31:05.960Z,32.58
2023-04-22T14:33:35.378Z,32.53
2023-04-22T14:36:03.637Z,32.58
2023-04-22T14:38:31.675Z,32.58
2023-04-22T14:40:59.995Z,32.44
2023-04-22T14:43:28.300Z,32.31
2023-04-22T14:45:56.353Z,32.36
2023-04-22T14:48:30.087Z,32.36
2023-04-22T14:50:58.308Z,32.33
2023-04-22T14:53:27.409Z,32.33
2023-04-22T14:55:59.195Z,32.36
2023-04-22T14:58:32.216Z,32.38
2023-04-22T15:01:01.142Z,32.36
2023-04-22T15:03:38.705Z,32.30
2023-04-22T15:06:07.914Z,32.29
2023-04-22T15:08:36.425Z,32.30
2023-04-22T15:11:04.480Z,32.47
2023-04-22T15:13:32.422Z,32.80
2023-04-22T15:16:00.726Z,33.19
2023-04-22T15:18:29.551Z,33.56
2023-04-22T15:20:58.926Z,33.78
2023-04-22T15:23:27.246Z,33.50
2023-04-22T15:25:55.303Z,33.20
2023-04-22T15:28:24.407Z,33.15
2023-04-22T15:30:52.837Z,33.20
2023-04-22T15:33:21.209Z,33.33
2023-04-22T15:35:50.292Z,33.24
2023-04-22T15:38:20.084Z,33.17
2023-04-22T15:40:48.203Z,33.01
2023-04-22T15:43:16.097Z,32.93
2023-04-22T15:45:50.159Z,32.82
2023-04-22T15:48:18.311Z,32.75
2023-04-22T15:50:46.668Z,32.65
2023-04-22T15:53:14.620Z,32.45
2023-04-22T15:55:44.017Z,32.21
2023-04-22T15:58:12.360Z,32.02
2023-04-22T16:00:41.077Z,31.67
2023-04-22T16:03:10.492Z,31.33
2023-04-22T16:05:38.597Z,30.98
2023-04-22T16:08:06.757Z,30.65
2023-04-22T16:10:35.163Z,30.38
2023-04-22T16:13:04.409Z,30.11
2023-04-22T16:15:32.545Z,29.89
2023-04-22T16:18:01.267Z,29.65
2023-04-22T16:20:29.625Z,29.45
2023-04-22T16:22:57.745Z,29.21
2023-04-22T16:25:25.993Z,29.04
2023-04-22T16:27:54.096Z,28.90
2023-04-22T16:30:23.717Z,28.77
2023-04-22T16:32:52.323Z,28.67
2023-04-22T16:35:20.587Z,28.60
2023-04-22T16:37:48.660Z,28.56
2023-04-22T16:40:17.046Z,28.71
2023-04-22T16:42:45.333Z,28.97
2023-04-22T16:45:13.480Z,29.19
2023-04-22T16:47:43.118Z,29.27
2023-04-22T16:50:12.471Z,29.24
2023-04-22T16:52:40.539Z,29.14
2023-04-22T16:55:09.538Z,29.00
2023-04-22T16:57:37.490Z,28.83
2023-04-22T17:00:06.872Z,28.63
2023-04-22T17:02:36.063Z,28.55
2023-04-22T17:05:06.228Z,28.48
2023-04-22T17:07:34.383Z,28.32
2023-04-22T17:10:02.472Z,28.23
2023-04-22T17:12:31.045Z,28.12
2023-04-22T17:14:59.266Z,28.01
2023-04-22T17:17:27.308Z,27.87
2023-04-22T17:19:55.409Z,27.73
2023-04-22T17:22:25.521Z,27.55
2023-04-22T17:24:53.602Z,27.30
2023-04-22T17:27:21.579Z,27.08
2023-04-22T17:29:49.951Z,26.93
2023-04-22T17:32:18.268Z,26.83
2023-04-22T17:34:46.501Z,26.70
2023-04-22T17:37:14.960Z,26.52
2023-04-22T17:39:44.292Z,26.34
2023-04-22T17:42:12.617Z,26.15
2023-04-22T17:44:41.146Z,25.97
2023-04-22T17:47:09.468Z,25.80
2023-04-22T17:49:37.776Z,25.62
2023-04-22T17:52:06.457Z,25.45
2023-04-22T17:54:34.514Z,25.26
2023-04-22T17:57:04.543Z,25.08
2023-04-22T17:59:33.009Z,24.91
2023-04-22T18:02:01.668Z,24.74
2023-04-22T18:04:32.895Z,24.55
2023-04-22T18:07:00.911Z,24.38
2023-04-22T18:09:28.986Z,24.23
2023-04-22T18:11:58.873Z,24.09
2023-04-22T18:14:28.630Z,23.93
2023-04-22T18:16:56.849Z,23.78
2023-04-22T18:19:26.076Z,23.62
2023-04-22T18:22:00.102Z,23.45
2023-04-22T18:24:28.951Z,23.34
2023-04-22T18:26:57.016Z,23.20
2023-04-22T18:29:25.182Z,23.06
2023-04-22T18:31:55.040Z,22.93
2023-04-22T18:34:24.010Z,22.81
2023-04-22T18:36:52.379Z,22.72
2023-04-22T18:39:21.195Z,22.61
2023-04-22T18:41:49.204Z,22.50
2023-04-22T18:44:17.178Z,22.45
2023-04-22T18:46:45.496Z,22.38
2023-04-22T18:49:14.891Z,22.31
2023-04-22T18:51:42.960Z,22.23
2023-04-22T18:54:11.393Z,22.18
2023-04-22T18:56:39.482Z,22.09
2023-04-22T18:59:07.622Z,22.03
2023-04-22T19:01:36.699Z,21.97
2023-04-22T19:04:04.941Z,21.89
2023-04-22T19:06:35.353Z,21.79
2023-04-22T19:09:04.725Z,21.70
2023-04-22T19:11:32.810Z,21.60
2023-04-22T19:14:02.870Z,21.51
2023-04-22T19:16:31.563Z,21.41
2023-04-22T19:18:59.468Z,21.34
2023-04-22T19:21:27.659Z,21.21
2023-04-22T19:23:57.494Z,21.12
2023-04-22T19:26:26.514Z,21.06
2023-04-22T19:28:54.595Z,21.00
2023-04-22T19:31:23.284Z,20.92
2023-04-22T19:33:51.450Z,20.84
2023-04-22T19:36:19.555Z,20.79
2023-04-22T19:38:47.817Z,20.75
2023-04-22T19:41:17.303Z,20.73
2023-04-22T19:43:46.072Z,20.71
2023-04-22T19:46:14.449Z,20.66
2023-04-22T19:48:42.902Z,20.63
2023-04-22T19:51:11.560Z,20.64
2023-04-22T19:53:41.065Z,20.63
2023-04-22T19:56:09.668Z,20.64
2023-04-22T19:58:39.678Z,20.66
2023-04-22T20:01:08.984Z,20.66
2023-04-22T20:03:38.293Z,20.72
2023-04-22T20:06:07.542Z,20.72
2023-04-22T20:08:36.416Z,20.72
2023-04-22T20:11:04.747Z,20.73
2023-04-22T20:13:33.995Z,20.74
2023-04-22T20:16:03.924Z,20.71
2023-04-22T20:18:33.055Z,20.70
2023-04-22T20:21:02.018Z,20.73
2023-04-22T20:23:32.982Z,20.74
2023-04-22T20:26:02.799Z,20.73
2023-04-22T20:28:44.338Z,20.75
2023-04-22T20:31:16.587Z,20.80
2023-04-22T20:33:44.886Z,20.86
2023-04-22T20:36:15.772Z,20.80
2023-04-22T20:38:48.852Z,20.81
2023-04-22T20:41:20.208Z,20.78
2023-04-22T20:43:48.377Z,20.74
2023-04-22T20:46:18.152Z,20.83
2023-04-22T20:48:47.727Z,20.88
2023-04-22T20:51:16.923Z,20.90
2023-04-22T20:53:45.372Z,20.91
2023-04-22T20:56:14.175Z,20.97
2023-04-22T20:58:42.153Z,21.00
2023-04-22T21:01:10.391Z,21.04
2023-04-22T21:03:41.135Z,21.07
2023-04-22T21:06:09.981Z,21.09
2023-04-22T21:08:40.245Z,21.04
2023-04-22T21:11:08.778Z,21.02
2023-04-22T21:13:37.352Z,21.03
2023-04-22T21:16:09.746Z,21.06
2023-04-22T21:18:44.352Z,21.05
2023-04-22T21:21:16.161Z,21.06
2023-04-22T21:23:45.028Z,21.07
2023-04-22T21:26:15.119Z,21.07
2023-04-22T21:28:44.455Z,21.03
2023-04-22T21:31:13.423Z,21.02
2023-04-22T21:33:43.097Z,21.03
2023-04-22T21:36:11.388Z,21.04
2023-04-22T21:38:39.377Z,21.07
2023-04-22T21:41:08.332Z,21.10
2023-04-22T21:43:36.386Z,21.13
2023-04-22T21:46:04.483Z,21.14
2023-04-22T21:48:32.819Z,21.16
2023-04-22T21:51:02.249Z,21.10
2023-04-22T21:53:30.330Z,21.11
2023-04-22T21:55:58.961Z,21.12
2023-04-22T21:58:27.125Z,21.14
2023-04-22T22:00:56.009Z,21.17
2023-04-22T22:03:24.607Z,21.19
2023-04-22T22:05:52.898Z,21.23
2023-04-22T22:08:22.433Z,21.22
2023-04-22T22:10:50.882Z,21.23
2023-04-22T22:13:18.966Z,21.24
2023-04-22T22:15:47.306Z,21.25
2023-04-22T22:18:15.709Z,21.24
2023-04-22T22:20:44.599Z,21.22
2023-04-22T22:23:12.670Z,21.22
2023-04-22T22:25:42.394Z,21.22
2023-04-22T22:28:11.120Z,21.25
2023-04-22T22:30:39.253Z,21.27
2023-04-22T22:33:07.780Z,21.27
2023-04-22T22:35:36.130Z,21.28
2023-04-22T22:38:04.212Z,21.28
2023-04-22T22:40:32.501Z,21.25
2023-04-22T22:43:02.044Z,21.24
2023-04-22T22:45:30.264Z,21.19
2023-04-22T22:47:58.720Z,21.16
2023-04-22T22:50:27.279Z,21.12
2023-04-22T22:52:55.516Z,21.07
2023-04-22T22:55:25.221Z,21.05
2023-04-22T22:57:53.382Z,21.04
2023-04-22T23:00:22.984Z,21.00
2023-04-22T23:02:51.490Z,20.97
2023-04-22T23:05:19.810Z,20.97
2023-04-22T23:07:47.883Z,20.96
2023-04-22T23:10:16.272Z,20.92
2023-04-22T23:12:44.443Z,20.89
2023-04-22T23:15:12.736Z,20.87
2023-04-22T23:17:42.583Z,20.88
2023-04-22T23:20:12.109Z,20.89
2023-04-22T23:22:41.089Z,20.92
2023-04-22T23:25:10.478Z,20.91
2023-04-22T23:27:38.928Z,20.91
2023-04-22T23:30:08.738Z,20.91
2023-04-22T23:32:37.022Z,20.91
2023-04-22T23:35:08.848Z,20.91
2023-04-22T23:37:38.714Z,20.87
2023-04-22T23:40:08.226Z,20.85
2023-04-22T23:42:36.427Z,20.84
2023-04-22T23:45:04.816Z,20.79
2023-04-22T23:47:33.326Z,20.78
2023-04-22T23:50:01.678Z,20.79
2023-04-22T23:52:31.016Z,20.84
2023-04-22T23:54:59.580Z,20.88
2023-04-22T23:57:28.676Z,20.91
2023-04-22T23:59:57.257Z,20.94
